createdAt,value
2023-03-18T00:01:28.069Z,14.97
2023-03-18T00:03:56.125Z,13.73
2023-03-18T00:06:23.544Z,13.77
2023-03-18T00:08:50.925Z,13.63
2023-03-18T00:11:19.998Z,13.93
2023-03-18T00:13:48.025Z,13.43
2023-03-18T00:16:15.777Z,13.80
2023-03-18T00:18:43.891Z,13.27
2023-03-18T00:21:12.168Z,12.63
2023-03-18T00:23:39.553Z,13.30
2023-03-18T00:26:09.054Z,12.60
2023-03-18T00:28:37.414Z,12.90
2023-03-18T00:31:08.617Z,12.93
2023-03-18T00:33:45.650Z,13.50
2023-03-18T00:36:14.240Z,14.20
2023-03-18T00:38:42.777Z,13.03
2023-03-18T00:41:15.778Z,13.57
2023-03-18T00:43:52.609Z,12.70
2023-03-18T00:48:53.811Z,13.43
2023-03-18T00:51:22.670Z,12.43
2023-03-18T00:53:52.134Z,13.53
2023-03-18T00:56:21.239Z,13.77
2023-03-18T00:58:48.924Z,15.60
2023-03-18T01:01:17.025Z,13.63
2023-03-18T01:03:44.788Z,14.93
2023-03-18T01:06:13.515Z,17.13
2023-03-18T01:08:41.242Z,17.37
2023-03-18T01:11:09.250Z,23.27
2023-03-18T01:13:37.585Z,20.50
2023-03-18T01:16:05.509Z,17.37
2023-03-18T01:18:34.479Z,17.73
2023-03-18T01:21:01.937Z,16.00
2023-03-18T01:23:30.306Z,13.50
2023-03-18T01:25:58.256Z,14.30
2023-03-18T01:28:27.316Z,13.40
2023-03-18T01:30:55.527Z,13.17
2023-03-18T01:33:24.261Z,13.53
2023-03-18T01:35:59.898Z,13.13
2023-03-18T01:38:31.342Z,12.30
2023-03-18T01:40:59.944Z,12.00
2023-03-18T01:43:30.558Z,12.47
2023-03-18T01:45:59.266Z,11.70
2023-03-18T01:48:29.470Z,12.90
2023-03-18T01:51:05.918Z,11.47
2023-03-18T01:53:40.328Z,12.50
2023-03-18T01:56:09.036Z,12.37
2023-03-18T01:58:38.908Z,11.27
2023-03-18T02:01:09.900Z,11.27
2023-03-18T02:03:38.097Z,11.60
2023-03-18T02:06:05.841Z,11.40
2023-03-18T02:08:33.336Z,11.60
2023-03-18T02:11:01.332Z,10.77
2023-03-18T02:13:28.708Z,10.67
2023-03-18T02:15:58.775Z,11.70
2023-03-18T02:18:29.940Z,10.80
2023-03-18T02:21:25.093Z,11.53
2023-03-18T02:24:06.078Z,10.70
2023-03-18T02:27:01.481Z,12.07
2023-03-18T02:29:31.235Z,11.50
2023-03-18T02:32:01.544Z,10.70
2023-03-18T02:34:29.661Z,12.33
2023-03-18T02:36:57.680Z,11.97
2023-03-18T02:39:25.192Z,11.33
2023-03-18T02:41:53.281Z,11.10
2023-03-18T02:44:20.768Z,10.77
2023-03-18T02:46:59.556Z,12.07
2023-03-18T02:49:30.028Z,11.60
2023-03-18T02:51:57.391Z,10.93
2023-03-18T02:54:29.002Z,12.20
2023-03-18T02:56:56.952Z,11.23
2023-03-18T02:59:25.543Z,12.13
2023-03-18T03:01:53.390Z,11.73
2023-03-18T03:04:23.759Z,11.13
2023-03-18T03:06:52.352Z,11.63
2023-03-18T03:09:21.862Z,11.40
2023-03-18T03:11:51.532Z,10.60
2023-03-18T03:14:19.849Z,11.63
2023-03-18T03:16:48.580Z,11.63
2023-03-18T03:19:16.854Z,10.33
2023-03-18T03:21:44.263Z,10.60
2023-03-18T03:24:11.711Z,11.40
2023-03-18T03:26:40.179Z,11.53
2023-03-18T03:29:07.550Z,11.97
2023-03-18T03:31:35.088Z,10.40
2023-03-18T03:34:04.238Z,11.07
2023-03-18T03:36:31.681Z,11.10
2023-03-18T03:38:59.064Z,10.33
2023-03-18T03:41:26.710Z,10.70
2023-03-18T03:43:54.189Z,11.33
2023-03-18T03:46:21.594Z,10.47
2023-03-18T03:48:49.959Z,10.87
2023-03-18T03:51:17.318Z,11.57
2023-03-18T03:53:46.274Z,9.93
2023-03-18T03:56:14.152Z,11.67
2023-03-18T03:58:41.877Z,11.00
2023-03-18T04:01:09.375Z,10.33
2023-03-18T04:03:37.426Z,10.60
2023-03-18T04:06:06.733Z,11.37
2023-03-18T04:08:34.511Z,12.50
2023-03-18T04:11:04.545Z,11.30
2023-03-18T04:13:32.116Z,11.70
2023-03-18T04:16:00.049Z,12.33
2023-03-18T04:18:28.055Z,12.10
2023-03-18T04:20:55.404Z,12.63
2023-03-18T04:23:24.075Z,12.10
2023-03-18T04:25:51.742Z,12.73
2023-03-18T04:28:19.153Z,12.27
2023-03-18T04:30:48.173Z,12.27
2023-03-18T04:33:16.720Z,12.87
2023-03-18T04:35:44.281Z,12.57
2023-03-18T04:38:12.217Z,12.17
2023-03-18T04:40:40.199Z,12.30
2023-03-18T04:43:07.578Z,12.90
2023-03-18T04:45:35.037Z,12.60
2023-03-18T04:48:04.146Z,12.07
2023-03-18T04:50:33.378Z,13.10
2023-03-18T04:53:01.778Z,13.63
2023-03-18T04:55:29.973Z,13.93
2023-03-18T04:57:58.699Z,14.10
2023-03-18T05:00:26.782Z,13.43
2023-03-18T05:02:55.132Z,13.57
2023-03-18T05:05:22.907Z,13.67
2023-03-18T05:07:50.575Z,13.40
2023-03-18T05:10:19.239Z,13.00
2023-03-18T05:12:46.761Z,13.07
2023-03-18T05:15:16.066Z,13.47
2023-03-18T05:17:44.257Z,13.13
2023-03-18T05:20:13.450Z,12.83
2023-03-18T05:22:42.047Z,13.47
2023-03-18T05:25:11.563Z,14.10
2023-03-18T05:27:40.540Z,12.13
2023-03-18T05:30:11.284Z,14.37
2023-03-18T05:32:39.507Z,14.03
2023-03-18T05:35:07.454Z,13.97
2023-03-18T05:37:35.463Z,13.47
2023-03-18T05:40:04.348Z,13.00
2023-03-18T05:42:31.924Z,13.00
2023-03-18T05:44:59.822Z,13.30
2023-03-18T05:47:27.868Z,14.77
2023-03-18T05:49:56.896Z,13.83
2023-03-18T05:52:24.741Z,13.27
2023-03-18T05:54:52.832Z,14.03
2023-03-18T05:57:21.100Z,13.50
2023-03-18T05:59:48.780Z,12.70
2023-03-18T06:02:18.452Z,13.13
2023-03-18T06:04:46.272Z,14.33
2023-03-18T06:07:15.249Z,12.73
2023-03-18T06:09:43.245Z,13.90
2023-03-18T06:12:11.527Z,14.03
2023-03-18T06:14:39.697Z,12.37
2023-03-18T06:17:07.498Z,12.57
2023-03-18T06:19:35.290Z,13.67
2023-03-18T06:22:02.716Z,14.13
2023-03-18T06:24:30.155Z,13.80
2023-03-18T06:26:58.187Z,13.53
2023-03-18T06:29:25.568Z,13.20
2023-03-18T06:31:54.092Z,14.03
2023-03-18T06:34:22.279Z,13.23
2023-03-18T06:36:49.721Z,13.43
2023-03-18T06:39:18.000Z,14.17
2023-03-18T06:41:46.346Z,15.13
2023-03-18T06:44:17.740Z,13.50
2023-03-18T06:46:46.576Z,14.00
2023-03-18T06:49:14.920Z,14.60
2023-03-18T06:51:44.013Z,13.27
2023-03-18T06:54:11.789Z,14.20
2023-03-18T06:56:40.127Z,12.87
2023-03-18T06:59:09.673Z,13.90
2023-03-18T07:01:38.116Z,14.17
2023-03-18T07:04:06.945Z,13.50
2023-03-18T07:06:34.558Z,13.70
2023-03-18T07:09:02.701Z,13.20
2023-03-18T07:11:30.294Z,13.80
2023-03-18T07:13:58.266Z,13.02
2023-03-18T07:16:26.307Z,12.93
2023-03-18T07:18:54.261Z,13.87
2023-03-18T07:21:21.645Z,14.53
2023-03-18T07:23:49.490Z,13.10
2023-03-18T07:26:18.340Z,12.10
2023-03-18T07:28:46.012Z,14.03
2023-03-18T07:31:14.120Z,12.20
2023-03-18T07:33:41.467Z,11.40
2023-03-18T07:36:09.886Z,12.07
2023-03-18T07:38:37.519Z,12.00
2023-03-18T07:41:04.995Z,11.27
2023-03-18T07:43:32.490Z,11.90
2023-03-18T07:46:00.117Z,12.07
2023-03-18T07:48:27.495Z,11.93
2023-03-18T07:50:55.394Z,12.32
2023-03-18T07:53:23.098Z,11.98
2023-03-18T07:55:50.452Z,12.10
2023-03-18T07:58:17.780Z,11.70
2023-03-18T08:00:45.495Z,11.15
2023-03-18T08:03:13.966Z,11.85
2023-03-18T08:05:41.341Z,12.13
2023-03-18T08:08:08.727Z,11.50
2023-03-18T08:10:36.687Z,12.00
2023-03-18T08:13:04.088Z,12.85
2023-03-18T08:15:31.689Z,12.02
2023-03-18T08:17:59.536Z,12.48
2023-03-18T08:20:27.288Z,11.55
2023-03-18T08:22:55.993Z,12.07
2023-03-18T08:25:23.713Z,11.93
2023-03-18T08:27:52.422Z,12.20
2023-03-18T08:30:19.972Z,12.30
2023-03-18T08:32:48.284Z,12.63
2023-03-18T08:35:15.688Z,12.52
2023-03-18T08:37:43.047Z,12.05
2023-03-18T08:40:11.741Z,13.18
2023-03-18T08:42:39.134Z,12.77
2023-03-18T08:45:07.254Z,12.98
2023-03-18T08:47:34.899Z,12.63
2023-03-18T08:50:02.952Z,12.32
2023-03-18T08:52:30.857Z,11.88
2023-03-18T08:54:58.614Z,12.32
2023-03-18T08:57:27.895Z,13.07
2023-03-18T08:59:55.288Z,11.93
2023-03-18T09:02:23.583Z,11.43
2023-03-18T09:04:51.243Z,11.70
2023-03-18T09:07:19.270Z,11.15
2023-03-18T09:09:46.928Z,11.80
2023-03-18T09:12:14.874Z,13.35
2023-03-18T09:14:43.617Z,11.82
2023-03-18T09:17:11.363Z,12.48
2023-03-18T09:19:38.783Z,11.48
2023-03-18T09:22:06.175Z,11.98
2023-03-18T09:24:35.002Z,12.90
2023-03-18T09:27:02.465Z,11.32
2023-03-18T09:29:29.841Z,13.65
2023-03-18T09:31:57.559Z,11.63
2023-03-18T09:34:24.900Z,12.37
2023-03-18T09:36:52.558Z,11.55
2023-03-18T09:39:21.045Z,11.93
2023-03-18T09:42:00.465Z,10.93
2023-03-18T09:44:33.625Z,11.32
2023-03-18T09:47:12.997Z,11.07
2023-03-18T09:50:06.084Z,11.80
2023-03-18T09:52:37.813Z,11.40
2023-03-18T09:55:12.521Z,11.15
2023-03-18T09:57:42.426Z,11.12
2023-03-18T10:00:20.532Z,12.02
2023-03-18T10:02:51.655Z,12.57
2023-03-18T10:05:36.555Z,12.32
2023-03-18T10:08:13.098Z,11.57
2023-03-18T10:10:42.216Z,11.20
2023-03-18T10:13:31.871Z,13.35
2023-03-18T10:15:59.893Z,12.55
2023-03-18T10:18:34.383Z,12.15
2023-03-18T10:21:17.019Z,12.43
2023-03-18T10:24:03.379Z,12.15
2023-03-18T10:26:55.131Z,12.77
2023-03-18T10:29:34.960Z,11.40
2023-03-18T10:32:20.753Z,12.73
2023-03-18T10:34:57.128Z,10.68
2023-03-18T10:37:40.655Z,10.52
2023-03-18T10:40:16.630Z,11.52
2023-03-18T10:42:44.174Z,10.50
2023-03-18T10:45:31.301Z,11.45
2023-03-18T10:48:15.629Z,10.65
2023-03-18T10:50:46.814Z,11.38
2023-03-18T10:53:33.405Z,9.95
2023-03-18T10:56:06.957Z,11.52
2023-03-18T10:58:34.562Z,11.00
2023-03-18T11:01:02.373Z,11.98
2023-03-18T11:03:35.038Z,10.38
2023-03-18T11:06:04.681Z,10.25
2023-03-18T11:08:36.526Z,11.00
2023-03-18T11:11:19.988Z,11.55
2023-03-18T11:13:49.204Z,11.95
2023-03-18T11:16:29.251Z,12.05
2023-03-18T11:18:56.658Z,11.70
2023-03-18T11:21:25.704Z,11.02
2023-03-18T11:24:20.854Z,11.10
2023-03-18T11:26:53.793Z,11.75
2023-03-18T11:29:27.352Z,11.00
2023-03-18T11:31:58.387Z,11.27
2023-03-18T11:34:27.078Z,11.12
2023-03-18T11:37:01.075Z,12.68
2023-03-18T11:39:30.848Z,11.32
2023-03-18T11:41:59.803Z,11.00
2023-03-18T11:44:32.565Z,11.05
2023-03-18T11:47:13.150Z,12.02
2023-03-18T11:49:42.938Z,11.57
2023-03-18T11:52:38.181Z,11.60
2023-03-18T11:55:15.987Z,11.30
2023-03-18T11:57:55.732Z,11.85
2023-03-18T12:00:28.649Z,11.18
2023-03-18T12:03:11.367Z,11.50
2023-03-18T12:05:43.631Z,11.40
2023-03-18T12:08:26.754Z,11.80
2023-03-18T12:11:06.052Z,12.32
2023-03-18T12:13:41.214Z,11.85
2023-03-18T12:16:30.619Z,11.80
2023-03-18T12:19:25.125Z,11.65
2023-03-18T12:22:16.520Z,10.98
2023-03-18T12:25:06.133Z,11.12
2023-03-18T12:27:48.448Z,11.15
2023-03-18T12:30:49.097Z,11.50
2023-03-18T12:33:27.077Z,11.43
2023-03-18T12:36:00.589Z,10.77
2023-03-18T12:38:46.760Z,10.73
2023-03-18T12:41:48.797Z,11.55
2023-03-18T12:44:28.974Z,13.18
2023-03-18T12:47:21.191Z,11.95
2023-03-18T12:50:21.856Z,12.02
2023-03-18T12:52:53.066Z,11.80
2023-03-18T12:55:34.573Z,13.00
2023-03-18T12:58:14.254Z,13.15
2023-03-18T13:01:10.510Z,12.13
2023-03-18T13:03:40.210Z,11.95
2023-03-18T13:06:21.396Z,11.57
2023-03-18T13:09:16.168Z,11.30
2023-03-18T13:11:45.493Z,11.48
2023-03-18T13:14:14.607Z,11.65
2023-03-18T13:16:42.129Z,11.60
2023-03-18T13:19:09.572Z,12.05
2023-03-18T13:21:41.170Z,11.68
2023-03-18T13:24:45.862Z,10.90
2023-03-18T13:27:23.429Z,11.70
2023-03-18T13:30:00.131Z,11.70
2023-03-18T13:32:40.803Z,12.00
2023-03-18T13:35:23.138Z,11.75
2023-03-18T13:38:06.500Z,11.38
2023-03-18T13:41:13.480Z,11.82
2023-03-18T13:43:42.578Z,12.70
2023-03-18T13:46:24.724Z,13.15
2023-03-18T13:48:59.917Z,11.20
2023-03-18T13:51:28.049Z,12.27
2023-03-18T13:54:05.756Z,12.52
2023-03-18T13:56:45.580Z,12.40
2023-03-18T13:59:34.895Z,12.70
2023-03-18T14:02:34.531Z,12.50
2023-03-18T14:05:02.454Z,12.75
2023-03-18T14:07:29.877Z,11.25
2023-03-18T14:10:15.287Z,12.43
2023-03-18T14:12:47.439Z,12.43
2023-03-18T14:15:15.709Z,11.43
2023-03-18T14:17:48.118Z,11.38
2023-03-18T14:20:17.193Z,11.63
2023-03-18T14:22:51.488Z,12.30
2023-03-18T14:25:22.611Z,11.88
2023-03-18T14:27:57.226Z,12.00
2023-03-18T14:30:42.828Z,11.95
2023-03-18T14:33:13.154Z,11.67
2023-03-18T14:35:48.596Z,11.00
2023-03-18T14:38:23.133Z,11.63
2023-03-18T14:40:52.753Z,11.23
2023-03-18T14:43:23.203Z,11.35
2023-03-18T14:45:53.459Z,10.77
2023-03-18T14:48:24.242Z,9.80
2023-03-18T14:50:52.523Z,11.00
2023-03-18T14:53:29.665Z,10.18
2023-03-18T14:55:57.426Z,10.13
2023-03-18T14:58:28.427Z,11.00
2023-03-18T15:01:06.629Z,10.60
2023-03-18T15:03:34.477Z,9.95
2023-03-18T15:06:03.444Z,10.77
2023-03-18T15:08:46.739Z,10.65
2023-03-18T15:11:16.527Z,10.50
2023-03-18T15:13:44.658Z,10.68
2023-03-18T15:16:14.308Z,10.82
2023-03-18T15:18:43.541Z,10.25
2023-03-18T15:21:19.989Z,10.45
2023-03-18T15:23:51.908Z,10.00
2023-03-18T15:26:19.254Z,11.05
2023-03-18T15:28:47.980Z,9.00
2023-03-18T15:31:31.828Z,10.05
2023-03-18T15:34:31.692Z,10.20
2023-03-18T15:37:00.996Z,9.88
2023-03-18T15:39:30.956Z,9.80
2023-03-18T15:41:59.212Z,9.60
2023-03-18T15:44:31.302Z,10.18
2023-03-18T15:47:13.787Z,9.20
2023-03-18T15:49:54.416Z,9.50
2023-03-18T15:52:26.501Z,10.13
2023-03-18T15:54:53.877Z,9.77
2023-03-18T15:57:26.342Z,9.98
2023-03-18T15:59:54.484Z,9.38
2023-03-18T16:02:22.647Z,9.63
2023-03-18T16:04:50.405Z,9.35
2023-03-18T16:07:19.064Z,10.10
2023-03-18T16:09:46.416Z,8.63
2023-03-18T16:12:21.865Z,10.90
2023-03-18T16:14:49.963Z,9.43
2023-03-18T16:17:21.500Z,10.05
2023-03-18T16:19:53.865Z,9.23
2023-03-18T16:22:21.972Z,9.80
2023-03-18T16:24:49.447Z,9.73
2023-03-18T16:27:37.495Z,9.23
2023-03-18T16:30:16.424Z,10.02
2023-03-18T16:32:44.103Z,10.48
2023-03-18T16:35:15.918Z,10.13
2023-03-18T16:37:44.295Z,9.93
2023-03-18T16:40:20.013Z,10.05
2023-03-18T16:42:50.302Z,10.48
2023-03-18T16:45:25.213Z,10.23
2023-03-18T16:47:54.029Z,11.12
2023-03-18T16:50:23.155Z,10.48
2023-03-18T16:52:50.559Z,10.32
2023-03-18T16:55:19.342Z,10.00
2023-03-18T16:57:53.331Z,9.63
2023-03-18T17:00:25.385Z,9.80
2023-03-18T17:02:53.702Z,9.07
2023-03-18T17:05:21.342Z,10.70
2023-03-18T17:07:49.308Z,9.52
2023-03-18T17:10:19.349Z,10.32
2023-03-18T17:13:07.338Z,10.25
2023-03-18T17:15:37.082Z,10.10
2023-03-18T17:18:05.492Z,10.35
2023-03-18T17:20:33.355Z,11.60
2023-03-18T17:23:01.152Z,10.88
2023-03-18T17:25:28.931Z,11.82
2023-03-18T17:28:01.106Z,14.52
2023-03-18T17:30:34.252Z,12.80
2023-03-18T17:33:03.634Z,13.13
2023-03-18T17:35:31.752Z,11.80
2023-03-18T17:37:59.782Z,11.98
2023-03-18T17:40:28.756Z,12.98
2023-03-18T17:42:56.474Z,11.73
2023-03-18T17:45:34.524Z,12.32
2023-03-18T17:48:14.729Z,11.55
2023-03-18T17:50:42.533Z,13.55
2023-03-18T17:53:22.105Z,12.23
2023-03-18T17:55:49.537Z,11.95
2023-03-18T17:58:18.025Z,12.50
2023-03-18T18:00:46.400Z,14.02
2023-03-18T18:03:25.687Z,13.80
2023-03-18T18:05:54.099Z,14.15
2023-03-18T18:08:22.784Z,14.55
2023-03-18T18:10:50.156Z,14.63
2023-03-18T18:13:19.072Z,14.93
2023-03-18T18:15:46.771Z,13.32
2023-03-18T18:18:25.433Z,13.90
2023-03-18T18:21:00.532Z,14.15
2023-03-18T18:23:29.988Z,14.75
2023-03-18T18:25:59.853Z,14.38
2023-03-18T18:28:41.036Z,15.45
2023-03-18T18:31:10.106Z,15.82
2023-03-18T18:33:38.253Z,13.98
2023-03-18T18:36:06.520Z,14.48
2023-03-18T18:38:34.186Z,14.35
2023-03-18T18:41:01.879Z,14.10
2023-03-18T18:43:29.402Z,15.02
2023-03-18T18:45:57.630Z,14.68
2023-03-18T18:48:27.635Z,15.73
2023-03-18T18:50:55.001Z,14.75
2023-03-18T18:53:26.148Z,15.02
2023-03-18T18:55:55.154Z,15.07
2023-03-18T18:58:26.573Z,15.18
2023-03-18T19:00:54.002Z,14.13
2023-03-18T19:03:22.721Z,14.85
2023-03-18T19:05:51.737Z,14.75
2023-03-18T19:08:25.050Z,14.38
2023-03-18T19:10:54.035Z,14.75
2023-03-18T19:13:21.400Z,14.60
2023-03-18T19:15:48.955Z,15.55
2023-03-18T19:18:21.240Z,15.02
2023-03-18T19:20:49.001Z,14.70
2023-03-18T19:23:18.937Z,14.35
2023-03-18T19:25:46.636Z,15.07
2023-03-18T19:28:16.670Z,16.25
2023-03-18T19:30:44.695Z,14.65
2023-03-18T19:33:17.802Z,14.50
2023-03-18T19:35:45.481Z,15.23
2023-03-18T19:38:19.394Z,15.30
2023-03-18T19:40:48.848Z,14.75
2023-03-18T19:43:17.684Z,15.80
2023-03-18T19:45:46.573Z,16.65
2023-03-18T19:48:16.361Z,17.52
2023-03-18T19:50:44.615Z,18.20
2023-03-18T19:53:13.136Z,18.35
2023-03-18T19:55:41.461Z,16.15
2023-03-18T19:58:14.456Z,16.37
2023-03-18T20:00:42.819Z,15.07
2023-03-18T20:03:18.025Z,15.32
2023-03-18T20:05:45.756Z,15.52
2023-03-18T20:08:13.691Z,15.55
2023-03-18T20:10:41.703Z,14.87
2023-03-18T20:13:15.067Z,15.68
2023-03-18T20:15:42.710Z,15.90
2023-03-18T20:18:15.076Z,15.43
2023-03-18T20:20:47.535Z,15.82
2023-03-18T20:23:25.145Z,16.70
2023-03-18T20:25:53.768Z,17.77
2023-03-18T20:28:23.077Z,16.83
2023-03-18T20:30:52.521Z,16.85
2023-03-18T20:33:20.674Z,17.15
2023-03-18T20:35:49.358Z,15.77
2023-03-18T20:38:18.564Z,16.73
2023-03-18T20:40:49.405Z,17.27
2023-03-18T20:43:17.686Z,17.83
2023-03-18T20:45:45.035Z,17.52
2023-03-18T20:48:12.745Z,17.52
2023-03-18T20:50:41.046Z,19.17
2023-03-18T20:53:21.717Z,16.05
2023-03-18T20:55:49.838Z,17.80
2023-03-18T20:58:24.812Z,15.85
2023-03-18T21:00:52.661Z,16.60
2023-03-18T21:03:30.673Z,15.98
2023-03-18T21:06:00.203Z,16.48
2023-03-18T21:08:28.066Z,16.17
2023-03-18T21:10:55.564Z,16.17
2023-03-18T21:13:30.340Z,15.52
2023-03-18T21:15:58.493Z,15.02
2023-03-18T21:18:26.573Z,14.48
2023-03-18T21:20:54.518Z,16.45
2023-03-18T21:23:23.781Z,15.82
2023-03-18T21:25:51.615Z,14.77
2023-03-18T21:28:19.780Z,16.20
2023-03-18T21:30:48.922Z,16.58
2023-03-18T21:33:25.361Z,15.75
2023-03-18T21:35:56.737Z,17.67
2023-03-18T21:38:25.616Z,16.23
2023-03-18T21:40:53.378Z,16.25
2023-03-18T21:43:31.927Z,15.23
2023-03-18T21:46:00.366Z,16.05
2023-03-18T21:48:27.846Z,15.57
2023-03-18T21:50:55.695Z,15.35
2023-03-18T21:53:24.247Z,16.42
2023-03-18T21:55:52.157Z,16.75
2023-03-18T21:58:21.328Z,15.80
2023-03-18T22:00:51.195Z,15.20
2023-03-18T22:03:19.869Z,15.88
2023-03-18T22:05:48.693Z,15.57
2023-03-18T22:08:16.797Z,16.33
2023-03-18T22:10:44.635Z,17.87
2023-03-18T22:13:25.816Z,16.08
2023-03-18T22:15:54.259Z,16.05
2023-03-18T22:18:22.655Z,18.70
2023-03-18T22:20:50.923Z,16.45
2023-03-18T22:23:20.467Z,16.77
2023-03-18T22:25:49.716Z,17.20
2023-03-18T22:28:17.100Z,15.98
2023-03-18T22:30:46.168Z,16.67
2023-03-18T22:33:18.493Z,16.85
2023-03-18T22:35:46.209Z,15.63
2023-03-18T22:38:15.266Z,15.52
2023-03-18T22:40:43.230Z,16.05
2023-03-18T22:43:29.148Z,14.55
2023-03-18T22:45:57.143Z,16.25
2023-03-18T22:48:24.907Z,15.43
2023-03-18T22:50:53.654Z,15.07
2023-03-18T22:53:26.099Z,15.18
2023-03-18T22:55:56.831Z,14.98
2023-03-18T22:58:25.958Z,14.57
2023-03-18T23:00:54.288Z,15.45
2023-03-18T23:03:28.761Z,14.82
2023-03-18T23:05:57.060Z,15.90
2023-03-18T23:08:24.466Z,15.15
2023-03-18T23:10:52.402Z,14.68
2023-03-18T23:13:28.964Z,15.05
2023-03-18T23:15:56.584Z,16.33
2023-03-18T23:18:24.238Z,15.48
2023-03-18T23:20:51.585Z,15.90
2023-03-18T23:23:20.883Z,16.50
2023-03-18T23:25:49.176Z,16.33
2023-03-18T23:28:16.941Z,15.95
2023-03-18T23:30:49.377Z,15.50
2023-03-18T23:33:17.419Z,15.73
2023-03-18T23:35:45.658Z,15.18
2023-03-18T23:38:13.065Z,15.50
2023-03-18T23:40:40.740Z,15.85
2023-03-18T23:43:09.093Z,16.60
2023-03-18T23:45:37.685Z,16.45
2023-03-18T23:48:06.170Z,15.65
2023-03-18T23:50:33.539Z,16.90
2023-03-18T23:53:00.973Z,15.40
2023-03-18T23:55:34.584Z,15.73
2023-03-18T23:58:03.364Z,17.52
